sensor_id;sensor_type;location;lat;lon;timestamp;P1;durP1;ratioP1;P2;durP2;ratioP2
63342;SDS011;49465;57.664;39.686;2023-04-19T00:00:03;9.05;;;4.50;;
63342;SDS011;49465;57.664;39.686;2023-04-19T00:02:38;5.50;;;4.20;;
63342;SDS011;49465;57.664;39.686;2023-04-19T00:05:21;7.82;;;4.22;;
63342;SDS011;49465;57.664;39.686;2023-04-19T00:08:01;6.45;;;4.38;;
63342;SDS011;49465;57.664;39.686;2023-04-19T00:10:42;8.27;;;4.28;;
63342;SDS011;49465;57.664;39.686;2023-04-19T00:13:14;5.65;;;4.25;;
63342;SDS011;49465;57.664;39.686;2023-04-19T00:15:45;6.43;;;4.05;;
63342;SDS011;49465;57.664;39.686;2023-04-19T00:18:17;6.43;;;4.05;;
63342;SDS011;49465;57.664;39.686;2023-04-19T00:20:54;6.40;;;4.45;;
63342;SDS011;49465;57.664;39.686;2023-04-19T00:23:20;7.20;;;4.15;;
63342;SDS011;49465;57.664;39.686;2023-04-19T00:25:47;6.25;;;4.05;;
63342;SDS011;49465;57.664;39.686;2023-04-19T00:28:14;6.78;;;4.20;;
63342;SDS011;49465;57.664;39.686;2023-04-19T00:30:43;6.88;;;4.30;;
63342;SDS011;49465;57.664;39.686;2023-04-19T00:33:14;5.80;;;4.20;;
63342;SDS011;49465;57.664;39.686;2023-04-19T00:35:43;5.88;;;4.28;;
63342;SDS011;49465;57.664;39.686;2023-04-19T00:38:10;7.50;;;3.95;;
63342;SDS011;49465;57.664;39.686;2023-04-19T00:40:39;6.97;;;4.13;;
63342;SDS011;49465;57.664;39.686;2023-04-19T00:43:08;5.65;;;4.03;;
63342;SDS011;49465;57.664;39.686;2023-04-19T00:45:38;6.93;;;4.10;;
63342;SDS011;49465;57.664;39.686;2023-04-19T00:48:13;7.50;;;4.13;;
63342;SDS011;49465;57.664;39.686;2023-04-19T00:50:42;6.60;;;4.10;;
63342;SDS011;49465;57.664;39.686;2023-04-19T00:53:09;7.65;;;4.28;;
63342;SDS011;49465;57.664;39.686;2023-04-19T00:55:43;6.93;;;4.25;;
63342;SDS011;49465;57.664;39.686;2023-04-19T00:58:17;4.13;;;3.65;;
63342;SDS011;49465;57.664;39.686;2023-04-19T01:00:50;5.50;;;4.10;;
63342;SDS011;49465;57.664;39.686;2023-04-19T01:03:20;5.93;;;4.32;;
63342;SDS011;49465;57.664;39.686;2023-04-19T01:05:51;6.63;;;4.55;;
63342;SDS011;49465;57.664;39.686;2023-04-19T01:08:23;7.55;;;4.65;;
63342;SDS011;49465;57.664;39.686;2023-04-19T01:10:52;5.32;;;3.97;;
63342;SDS011;49465;57.664;39.686;2023-04-19T01:13:22;5.90;;;3.78;;
63342;SDS011;49465;57.664;39.686;2023-04-19T01:15:49;6.95;;;3.78;;
63342;SDS011;49465;57.664;39.686;2023-04-19T01:18:16;5.22;;;4.22;;
63342;SDS011;49465;57.664;39.686;2023-04-19T01:20:48;5.47;;;4.43;;
63342;SDS011;49465;57.664;39.686;2023-04-19T01:23:21;6.15;;;4.30;;
63342;SDS011;49465;57.664;39.686;2023-04-19T01:25:51;5.30;;;4.30;;
63342;SDS011;49465;57.664;39.686;2023-04-19T01:28:21;7.30;;;4.70;;
63342;SDS011;49465;57.664;39.686;2023-04-19T01:30:48;5.97;;;4.50;;
63342;SDS011;49465;57.664;39.686;2023-04-19T01:33:18;7.40;;;4.53;;
63342;SDS011;49465;57.664;39.686;2023-04-19T01:35:48;5.90;;;4.47;;
63342;SDS011;49465;57.664;39.686;2023-04-19T01:38:17;7.93;;;4.47;;
63342;SDS011;49465;57.664;39.686;2023-04-19T01:40:44;7.63;;;4.22;;
63342;SDS011;49465;57.664;39.686;2023-04-19T01:43:18;7.25;;;4.60;;
63342;SDS011;49465;57.664;39.686;2023-04-19T01:45:45;7.13;;;4.90;;
63342;SDS011;49465;57.664;39.686;2023-04-19T01:48:19;7.30;;;4.82;;
63342;SDS011;49465;57.664;39.686;2023-04-19T01:50:51;6.03;;;4.40;;
63342;SDS011;49465;57.664;39.686;2023-04-19T01:53:28;6.13;;;4.70;;
63342;SDS011;49465;57.664;39.686;2023-04-19T01:56:06;6.85;;;4.53;;
63342;SDS011;49465;57.664;39.686;2023-04-19T01:58:39;6.80;;;4.57;;
63342;SDS011;49465;57.664;39.686;2023-04-19T02:01:11;7.32;;;4.90;;
63342;SDS011;49465;57.664;39.686;2023-04-19T02:03:49;7.22;;;4.60;;
63342;SDS011;49465;57.664;39.686;2023-04-19T02:06:24;9.38;;;4.72;;
63342;SDS011;49465;57.664;39.686;2023-04-19T02:08:55;7.57;;;5.03;;
63342;SDS011;49465;57.664;39.686;2023-04-19T02:11:27;8.25;;;5.00;;
63342;SDS011;49465;57.664;39.686;2023-04-19T02:14:05;6.68;;;4.68;;
63342;SDS011;49465;57.664;39.686;2023-04-19T02:16:39;7.88;;;5.07;;
63342;SDS011;49465;57.664;39.686;2023-04-19T02:19:06;10.52;;;5.75;;
63342;SDS011;49465;57.664;39.686;2023-04-19T02:21:32;17.77;;;5.68;;
63342;SDS011;49465;57.664;39.686;2023-04-19T02:23:59;6.90;;;5.07;;
63342;SDS011;49465;57.664;39.686;2023-04-19T02:26:26;7.90;;;4.65;;
63342;SDS011;49465;57.664;39.686;2023-04-19T02:28:52;6.88;;;4.45;;
63342;SDS011;49465;57.664;39.686;2023-04-19T02:31:24;6.50;;;5.00;;
63342;SDS011;49465;57.664;39.686;2023-04-19T02:33:50;6.82;;;5.10;;
63342;SDS011;49465;57.664;39.686;2023-04-19T02:36:19;6.53;;;5.05;;
63342;SDS011;49465;57.664;39.686;2023-04-19T02:38:48;7.03;;;4.97;;
63342;SDS011;49465;57.664;39.686;2023-04-19T02:41:14;7.07;;;4.95;;
63342;SDS011;49465;57.664;39.686;2023-04-19T02:43:40;7.43;;;4.95;;
63342;SDS011;49465;57.664;39.686;2023-04-19T02:46:07;8.32;;;5.20;;
63342;SDS011;49465;57.664;39.686;2023-04-19T02:48:34;7.82;;;5.07;;
63342;SDS011;49465;57.664;39.686;2023-04-19T02:51:03;8.18;;;5.25;;
63342;SDS011;49465;57.664;39.686;2023-04-19T02:53:32;7.10;;;5.20;;
63342;SDS011;49465;57.664;39.686;2023-04-19T02:56:06;7.68;;;5.20;;
63342;SDS011;49465;57.664;39.686;2023-04-19T02:58:35;6.80;;;5.10;;
63342;SDS011;49465;57.664;39.686;2023-04-19T03:01:05;8.95;;;5.10;;
63342;SDS011;49465;57.664;39.686;2023-04-19T03:03:35;6.35;;;4.60;;
63342;SDS011;49465;57.664;39.686;2023-04-19T03:06:02;7.07;;;4.93;;
63342;SDS011;49465;57.664;39.686;2023-04-19T03:08:28;6.40;;;4.60;;
63342;SDS011;49465;57.664;39.686;2023-04-19T03:10:58;7.03;;;4.45;;
63342;SDS011;49465;57.664;39.686;2023-04-19T03:13:24;6.80;;;4.75;;
63342;SDS011;49465;57.664;39.686;2023-04-19T03:15:56;8.43;;;4.63;;
63342;SDS011;49465;57.664;39.686;2023-04-19T03:18:25;7.68;;;4.93;;
63342;SDS011;49465;57.664;39.686;2023-04-19T03:23:26;15.07;;;8.95;;
63342;SDS011;49465;57.664;39.686;2023-04-19T03:25:57;9.35;;;5.97;;
63342;SDS011;49465;57.664;39.686;2023-04-19T03:28:28;11.05;;;5.28;;
63342;SDS011;49465;57.664;39.686;2023-04-19T03:30:57;9.80;;;4.93;;
63342;SDS011;49465;57.664;39.686;2023-04-19T03:33:29;8.20;;;5.05;;
63342;SDS011;49465;57.664;39.686;2023-04-19T03:35:58;7.28;;;5.03;;
63342;SDS011;49465;57.664;39.686;2023-04-19T03:38:30;13.57;;;4.88;;
63342;SDS011;49465;57.664;39.686;2023-04-19T03:41:09;14.27;;;5.28;;
63342;SDS011;49465;57.664;39.686;2023-04-19T03:43:47;7.45;;;4.90;;
63342;SDS011;49465;57.664;39.686;2023-04-19T03:46:25;8.48;;;4.70;;
63342;SDS011;49465;57.664;39.686;2023-04-19T03:48:57;6.13;;;4.93;;
63342;SDS011;49465;57.664;39.686;2023-04-19T03:51:27;6.28;;;4.70;;
63342;SDS011;49465;57.664;39.686;2023-04-19T03:53:54;7.60;;;4.85;;
63342;SDS011;49465;57.664;39.686;2023-04-19T03:56:20;6.15;;;4.30;;
63342;SDS011;49465;57.664;39.686;2023-04-19T03:58:50;7.13;;;4.80;;
63342;SDS011;49465;57.664;39.686;2023-04-19T04:01:25;7.32;;;4.50;;
63342;SDS011;49465;57.664;39.686;2023-04-19T04:03:58;8.13;;;4.60;;
63342;SDS011;49465;57.664;39.686;2023-04-19T04:06:24;9.32;;;4.55;;
63342;SDS011;49465;57.664;39.686;2023-04-19T04:08:53;6.90;;;4.38;;
63342;SDS011;49465;57.664;39.686;2023-04-19T04:11:24;7.50;;;4.55;;
63342;SDS011;49465;57.664;39.686;2023-04-19T04:13:50;6.57;;;4.60;;
63342;SDS011;49465;57.664;39.686;2023-04-19T04:16:20;6.85;;;4.97;;
63342;SDS011;49465;57.664;39.686;2023-04-19T04:18:49;7.47;;;5.22;;
63342;SDS011;49465;57.664;39.686;2023-04-19T04:21:18;10.52;;;5.53;;
63342;SDS011;49465;57.664;39.686;2023-04-19T04:23:45;12.70;;;5.40;;
63342;SDS011;49465;57.664;39.686;2023-04-19T04:26:13;10.27;;;5.50;;
63342;SDS011;49465;57.664;39.686;2023-04-19T04:28:44;19.98;;;6.25;;
63342;SDS011;49465;57.664;39.686;2023-04-19T04:31:17;11.70;;;6.13;;
63342;SDS011;49465;57.664;39.686;2023-04-19T04:33:50;15.18;;;8.35;;
63342;SDS011;49465;57.664;39.686;2023-04-19T04:36:25;12.98;;;8.15;;
63342;SDS011;49465;57.664;39.686;2023-04-19T04:38:55;13.80;;;8.30;;
63342;SDS011;49465;57.664;39.686;2023-04-19T04:41:26;13.48;;;7.40;;
63342;SDS011;49465;57.664;39.686;2023-04-19T04:43:58;9.70;;;5.85;;
63342;SDS011;49465;57.664;39.686;2023-04-19T04:46:28;9.90;;;5.05;;
63342;SDS011;49465;57.664;39.686;2023-04-19T04:48:54;8.65;;;5.18;;
63342;SDS011;49465;57.664;39.686;2023-04-19T04:51:20;7.88;;;4.97;;
63342;SDS011;49465;57.664;39.686;2023-04-19T04:53:50;7.35;;;4.38;;
63342;SDS011;49465;57.664;39.686;2023-04-19T04:56:16;5.93;;;4.40;;
63342;SDS011;49465;57.664;39.686;2023-04-19T04:58:43;6.50;;;4.28;;
63342;SDS011;49465;57.664;39.686;2023-04-19T05:01:10;5.85;;;3.85;;
63342;SDS011;49465;57.664;39.686;2023-04-19T05:03:36;9.73;;;4.05;;
63342;SDS011;49465;57.664;39.686;2023-04-19T05:06:03;8.10;;;4.20;;
63342;SDS011;49465;57.664;39.686;2023-04-19T05:08:29;7.55;;;4.18;;
63342;SDS011;49465;57.664;39.686;2023-04-19T05:10:56;6.78;;;4.40;;
63342;SDS011;49465;57.664;39.686;2023-04-19T05:13:22;12.80;;;4.32;;
63342;SDS011;49465;57.664;39.686;2023-04-19T05:15:49;6.22;;;4.53;;
63342;SDS011;49465;57.664;39.686;2023-04-19T05:18:15;14.55;;;10.60;;
63342;SDS011;49465;57.664;39.686;2023-04-19T05:20:42;14.02;;;9.35;;
63342;SDS011;49465;57.664;39.686;2023-04-19T05:23:11;16.27;;;10.57;;
63342;SDS011;49465;57.664;39.686;2023-04-19T05:25:41;29.73;;;17.83;;
63342;SDS011;49465;57.664;39.686;2023-04-19T05:28:10;22.77;;;15.60;;
63342;SDS011;49465;57.664;39.686;2023-04-19T05:30:40;23.58;;;14.68;;
63342;SDS011;49465;57.664;39.686;2023-04-19T05:33:09;26.60;;;16.83;;
63342;SDS011;49465;57.664;39.686;2023-04-19T05:35:41;28.92;;;15.70;;
63342;SDS011;49465;57.664;39.686;2023-04-19T05:38:13;15.48;;;8.98;;
63342;SDS011;49465;57.664;39.686;2023-04-19T05:40:51;25.42;;;15.27;;
63342;SDS011;49465;57.664;39.686;2023-04-19T05:43:20;18.35;;;6.40;;
63342;SDS011;49465;57.664;39.686;2023-04-19T05:45:52;11.75;;;5.68;;
63342;SDS011;49465;57.664;39.686;2023-04-19T05:48:21;14.48;;;5.28;;
63342;SDS011;49465;57.664;39.686;2023-04-19T05:50:53;7.55;;;4.68;;
63342;SDS011;49465;57.664;39.686;2023-04-19T05:55:59;7.75;;;4.75;;
63342;SDS011;49465;57.664;39.686;2023-04-19T05:58:28;7.07;;;3.47;;
63342;SDS011;49465;57.664;39.686;2023-04-19T06:01:00;6.47;;;3.40;;
63342;SDS011;49465;57.664;39.686;2023-04-19T06:03:27;5.68;;;3.20;;
63342;SDS011;49465;57.664;39.686;2023-04-19T06:05:59;8.02;;;3.28;;
63342;SDS011;49465;57.664;39.686;2023-04-19T06:08:28;4.93;;;3.72;;
63342;SDS011;49465;57.664;39.686;2023-04-19T06:11:00;3.75;;;3.00;;
63342;SDS011;49465;57.664;39.686;2023-04-19T06:13:40;6.85;;;3.15;;
63342;SDS011;49465;57.664;39.686;2023-04-19T06:16:09;7.13;;;2.85;;
63342;SDS011;49465;57.664;39.686;2023-04-19T06:18:41;4.43;;;2.65;;
63342;SDS011;49465;57.664;39.686;2023-04-19T06:21:08;4.22;;;2.70;;
63342;SDS011;49465;57.664;39.686;2023-04-19T06:23:35;4.30;;;2.90;;
63342;SDS011;49465;57.664;39.686;2023-04-19T06:26:07;4.15;;;2.70;;
63342;SDS011;49465;57.664;39.686;2023-04-19T06:28:38;7.20;;;2.70;;
63342;SDS011;49465;57.664;39.686;2023-04-19T06:31:10;5.80;;;2.80;;
63342;SDS011;49465;57.664;39.686;2023-04-19T06:33:36;4.70;;;2.60;;
63342;SDS011;49465;57.664;39.686;2023-04-19T06:36:07;4.60;;;2.42;;
63342;SDS011;49465;57.664;39.686;2023-04-19T06:38:38;5.07;;;2.78;;
63342;SDS011;49465;57.664;39.686;2023-04-19T06:41:14;4.57;;;2.60;;
63342;SDS011;49465;57.664;39.686;2023-04-19T06:43:43;6.00;;;2.63;;
63342;SDS011;49465;57.664;39.686;2023-04-19T06:46:24;4.63;;;2.65;;
63342;SDS011;49465;57.664;39.686;2023-04-19T06:48:59;4.95;;;2.28;;
63342;SDS011;49465;57.664;39.686;2023-04-19T06:51:33;6.20;;;2.67;;
63342;SDS011;49465;57.664;39.686;2023-04-19T06:54:05;8.15;;;2.40;;
63342;SDS011;49465;57.664;39.686;2023-04-19T06:59:18;4.22;;;2.50;;
63342;SDS011;49465;57.664;39.686;2023-04-19T07:01:55;12.43;;;2.90;;
63342;SDS011;49465;57.664;39.686;2023-04-19T07:04:30;3.85;;;2.50;;
63342;SDS011;49465;57.664;39.686;2023-04-19T07:07:08;4.82;;;2.65;;
63342;SDS011;49465;57.664;39.686;2023-04-19T07:09:37;5.60;;;2.38;;
63342;SDS011;49465;57.664;39.686;2023-04-19T07:12:11;4.68;;;2.65;;
63342;SDS011;49465;57.664;39.686;2023-04-19T07:14:43;5.95;;;2.20;;
63342;SDS011;49465;57.664;39.686;2023-04-19T07:17:10;4.25;;;2.35;;
63342;SDS011;49465;57.664;39.686;2023-04-19T07:19:40;5.05;;;2.42;;
63342;SDS011;49465;57.664;39.686;2023-04-19T07:22:14;4.45;;;1.95;;
63342;SDS011;49465;57.664;39.686;2023-04-19T07:24:46;4.43;;;2.10;;
63342;SDS011;49465;57.664;39.686;2023-04-19T07:27:16;13.50;;;2.83;;
63342;SDS011;49465;57.664;39.686;2023-04-19T07:29:42;4.75;;;2.22;;
63342;SDS011;49465;57.664;39.686;2023-04-19T07:32:12;2.50;;;1.83;;
63342;SDS011;49465;57.664;39.686;2023-04-19T07:34:43;5.47;;;2.30;;
63342;SDS011;49465;57.664;39.686;2023-04-19T07:37:18;3.72;;;2.20;;
63342;SDS011;49465;57.664;39.686;2023-04-19T07:39:53;10.32;;;2.10;;
63342;SDS011;49465;57.664;39.686;2023-04-19T07:42:28;2.80;;;1.95;;
63342;SDS011;49465;57.664;39.686;2023-04-19T07:44:57;3.38;;;2.03;;
63342;SDS011;49465;57.664;39.686;2023-04-19T07:47:30;5.75;;;2.05;;
63342;SDS011;49465;57.664;39.686;2023-04-19T07:49:59;4.75;;;1.98;;
63342;SDS011;49465;57.664;39.686;2023-04-19T07:52:26;3.25;;;1.95;;
63342;SDS011;49465;57.664;39.686;2023-04-19T07:54:57;4.72;;;2.33;;
63342;SDS011;49465;57.664;39.686;2023-04-19T07:57:30;4.00;;;2.10;;
63342;SDS011;49465;57.664;39.686;2023-04-19T08:00:02;4.90;;;3.40;;
63342;SDS011;49465;57.664;39.686;2023-04-19T08:02:37;7.55;;;2.80;;
63342;SDS011;49465;57.664;39.686;2023-04-19T08:05:12;5.05;;;2.50;;
63342;SDS011;49465;57.664;39.686;2023-04-19T08:07:43;4.70;;;2.40;;
63342;SDS011;49465;57.664;39.686;2023-04-19T08:10:18;9.90;;;3.45;;
63342;SDS011;49465;57.664;39.686;2023-04-19T08:12:47;10.13;;;4.10;;
63342;SDS011;49465;57.664;39.686;2023-04-19T08:15:24;5.57;;;4.10;;
63342;SDS011;49465;57.664;39.686;2023-04-19T08:17:59;6.68;;;4.15;;
63342;SDS011;49465;57.664;39.686;2023-04-19T08:20:37;6.68;;;4.07;;
63342;SDS011;49465;57.664;39.686;2023-04-19T08:23:09;5.70;;;4.18;;
63342;SDS011;49465;57.664;39.686;2023-04-19T08:25:45;5.03;;;4.05;;
63342;SDS011;49465;57.664;39.686;2023-04-19T08:28:17;8.73;;;5.80;;
63342;SDS011;49465;57.664;39.686;2023-04-19T08:30:49;10.15;;;6.32;;
63342;SDS011;49465;57.664;39.686;2023-04-19T08:33:21;8.77;;;5.78;;
63342;SDS011;49465;57.664;39.686;2023-04-19T08:35:51;7.13;;;5.78;;
63342;SDS011;49465;57.664;39.686;2023-04-19T08:38:25;8.10;;;5.80;;
63342;SDS011;49465;57.664;39.686;2023-04-19T08:41:03;8.48;;;5.20;;
63342;SDS011;49465;57.664;39.686;2023-04-19T08:43:38;7.53;;;5.32;;
63342;SDS011;49465;57.664;39.686;2023-04-19T08:46:20;6.63;;;5.07;;
63342;SDS011;49465;57.664;39.686;2023-04-19T08:48:52;7.63;;;5.32;;
63342;SDS011;49465;57.664;39.686;2023-04-19T08:51:31;6.00;;;4.50;;
63342;SDS011;49465;57.664;39.686;2023-04-19T08:54:10;8.30;;;5.00;;
63342;SDS011;49465;57.664;39.686;2023-04-19T08:56:43;7.18;;;4.15;;
63342;SDS011;49465;57.664;39.686;2023-04-19T08:59:19;7.45;;;4.20;;
63342;SDS011;49465;57.664;39.686;2023-04-19T09:01:51;5.45;;;3.28;;
63342;SDS011;49465;57.664;39.686;2023-04-19T09:04:27;4.75;;;2.97;;
63342;SDS011;49465;57.664;39.686;2023-04-19T09:07:07;4.75;;;3.33;;
63342;SDS011;49465;57.664;39.686;2023-04-19T09:12:58;4.88;;;2.85;;
63342;SDS011;49465;57.664;39.686;2023-04-19T09:15:44;4.63;;;2.90;;
63342;SDS011;49465;57.664;39.686;2023-04-19T09:18:10;3.33;;;2.63;;
63342;SDS011;49465;57.664;39.686;2023-04-19T09:20:49;4.47;;;2.60;;
63342;SDS011;49465;57.664;39.686;2023-04-19T09:23:25;6.70;;;2.40;;
63342;SDS011;49465;57.664;39.686;2023-04-19T09:26:15;5.32;;;2.78;;
63342;SDS011;49465;57.664;39.686;2023-04-19T09:29:05;5.32;;;2.75;;
63342;SDS011;49465;57.664;39.686;2023-04-19T09:31:35;4.13;;;2.63;;
63342;SDS011;49465;57.664;39.686;2023-04-19T09:34:22;4.78;;;2.75;;
63342;SDS011;49465;57.664;39.686;2023-04-19T09:36:57;4.20;;;2.70;;
63342;SDS011;49465;57.664;39.686;2023-04-19T09:39:44;5.78;;;4.88;;
63342;SDS011;49465;57.664;39.686;2023-04-19T09:42:16;6.65;;;4.97;;
63342;SDS011;49465;57.664;39.686;2023-04-19T09:44:55;6.07;;;4.82;;
63342;SDS011;49465;57.664;39.686;2023-04-19T09:47:29;8.60;;;5.40;;
63342;SDS011;49465;57.664;39.686;2023-04-19T09:50:09;5.95;;;3.28;;
63342;SDS011;49465;57.664;39.686;2023-04-19T09:52:38;4.22;;;3.20;;
63342;SDS011;49465;57.664;39.686;2023-04-19T09:55:13;6.18;;;3.20;;
63342;SDS011;49465;57.664;39.686;2023-04-19T09:57:50;5.40;;;3.40;;
63342;SDS011;49465;57.664;39.686;2023-04-19T10:00:17;4.90;;;3.58;;
63342;SDS011;49465;57.664;39.686;2023-04-19T10:02:52;5.32;;;4.30;;
63342;SDS011;49465;57.664;39.686;2023-04-19T10:05:27;5.40;;;3.50;;
63342;SDS011;49465;57.664;39.686;2023-04-19T10:08:05;6.90;;;3.05;;
63342;SDS011;49465;57.664;39.686;2023-04-19T10:10:38;4.88;;;3.50;;
63342;SDS011;49465;57.664;39.686;2023-04-19T10:13:22;4.97;;;2.72;;
63342;SDS011;49465;57.664;39.686;2023-04-19T10:15:54;3.85;;;2.90;;
63342;SDS011;49465;57.664;39.686;2023-04-19T10:18:30;6.45;;;2.67;;
63342;SDS011;49465;57.664;39.686;2023-04-19T10:21:09;5.03;;;2.65;;
63342;SDS011;49465;57.664;39.686;2023-04-19T10:23:46;3.65;;;2.80;;
63342;SDS011;49465;57.664;39.686;2023-04-19T10:26:18;3.75;;;2.58;;
63342;SDS011;49465;57.664;39.686;2023-04-19T10:28:48;6.10;;;2.60;;
63342;SDS011;49465;57.664;39.686;2023-04-19T10:31:23;4.70;;;2.30;;
63342;SDS011;49465;57.664;39.686;2023-04-19T10:33:53;3.92;;;2.50;;
63342;SDS011;49465;57.664;39.686;2023-04-19T10:36:25;3.17;;;2.35;;
63342;SDS011;49465;57.664;39.686;2023-04-19T10:38:59;5.40;;;2.60;;
63342;SDS011;49465;57.664;39.686;2023-04-19T10:41:57;5.13;;;2.80;;
63342;SDS011;49465;57.664;39.686;2023-04-19T10:44:26;5.88;;;2.70;;
63342;SDS011;49465;57.664;39.686;2023-04-19T10:46:58;6.40;;;2.75;;
63342;SDS011;49465;57.664;39.686;2023-04-19T10:49:30;4.10;;;2.50;;
63342;SDS011;49465;57.664;39.686;2023-04-19T10:52:29;4.30;;;2.72;;
63342;SDS011;49465;57.664;39.686;2023-04-19T10:55:05;5.03;;;2.80;;
63342;SDS011;49465;57.664;39.686;2023-04-19T10:58:04;3.53;;;2.30;;
63342;SDS011;49465;57.664;39.686;2023-04-19T11:00:34;4.38;;;2.58;;
63342;SDS011;49465;57.664;39.686;2023-04-19T11:06:19;4.93;;;2.60;;
63342;SDS011;49465;57.664;39.686;2023-04-19T11:08:51;3.38;;;2.60;;
63342;SDS011;49465;57.664;39.686;2023-04-19T11:11:21;4.03;;;2.70;;
63342;SDS011;49465;57.664;39.686;2023-04-19T11:13:49;4.13;;;2.50;;
63342;SDS011;49465;57.664;39.686;2023-04-19T11:16:22;3.60;;;2.50;;
63342;SDS011;49465;57.664;39.686;2023-04-19T11:18:50;4.15;;;2.60;;
63342;SDS011;49465;57.664;39.686;2023-04-19T11:21:22;6.17;;;2.97;;
63342;SDS011;49465;57.664;39.686;2023-04-19T11:24:14;4.57;;;2.40;;
63342;SDS011;49465;57.664;39.686;2023-04-19T11:26:50;4.13;;;2.60;;
63342;SDS011;49465;57.664;39.686;2023-04-19T11:29:18;3.47;;;2.30;;
63342;SDS011;49465;57.664;39.686;2023-04-19T11:31:52;3.60;;;2.40;;
63342;SDS011;49465;57.664;39.686;2023-04-19T11:34:21;3.80;;;2.58;;
63342;SDS011;49465;57.664;39.686;2023-04-19T11:36:49;5.50;;;2.50;;
63342;SDS011;49465;57.664;39.686;2023-04-19T11:39:17;3.63;;;2.60;;
63342;SDS011;49465;57.664;39.686;2023-04-19T11:41:49;3.42;;;2.30;;
63342;SDS011;49465;57.664;39.686;2023-04-19T11:44:17;4.45;;;2.40;;
63342;SDS011;49465;57.664;39.686;2023-04-19T11:46:59;4.15;;;2.47;;
63342;SDS011;49465;57.664;39.686;2023-04-19T11:49:32;2.85;;;2.30;;
63342;SDS011;49465;57.664;39.686;2023-04-19T11:52:04;3.55;;;2.88;;
63342;SDS011;49465;57.664;39.686;2023-04-19T11:54:31;2.97;;;2.53;;
63342;SDS011;49465;57.664;39.686;2023-04-19T11:57:07;4.13;;;2.35;;
63342;SDS011;49465;57.664;39.686;2023-04-19T11:59:35;4.97;;;2.30;;
63342;SDS011;49465;57.664;39.686;2023-04-19T12:02:24;6.25;;;2.50;;
63342;SDS011;49465;57.664;39.686;2023-04-19T12:04:51;5.63;;;2.50;;
63342;SDS011;49465;57.664;39.686;2023-04-19T12:07:17;5.70;;;2.85;;
63342;SDS011;49465;57.664;39.686;2023-04-19T12:09:47;4.18;;;2.70;;
63342;SDS011;49465;57.664;39.686;2023-04-19T12:12:29;3.40;;;2.40;;
63342;SDS011;49465;57.664;39.686;2023-04-19T12:15:02;4.95;;;2.50;;
63342;SDS011;49465;57.664;39.686;2023-04-19T12:17:54;3.92;;;2.30;;
63342;SDS011;49465;57.664;39.686;2023-04-19T12:23:02;7.45;;;2.60;;
63342;SDS011;49465;57.664;39.686;2023-04-19T12:25:35;4.20;;;2.55;;
63342;SDS011;49465;57.664;39.686;2023-04-19T12:28:10;2.97;;;2.45;;
63342;SDS011;49465;57.664;39.686;2023-04-19T12:30:51;4.65;;;2.70;;
63342;SDS011;49465;57.664;39.686;2023-04-19T12:33:26;3.95;;;2.50;;
63342;SDS011;49465;57.664;39.686;2023-04-19T12:36:02;5.40;;;2.47;;
63342;SDS011;49465;57.664;39.686;2023-04-19T12:38:32;5.47;;;3.25;;
63342;SDS011;49465;57.664;39.686;2023-04-19T12:41:06;5.38;;;2.30;;
63342;SDS011;49465;57.664;39.686;2023-04-19T12:43:41;9.80;;;2.70;;
63342;SDS011;49465;57.664;39.686;2023-04-19T12:46:10;3.35;;;2.60;;
63342;SDS011;49465;57.664;39.686;2023-04-19T12:48:42;6.10;;;2.70;;
63342;SDS011;49465;57.664;39.686;2023-04-19T12:51:19;5.18;;;2.63;;
63342;SDS011;49465;57.664;39.686;2023-04-19T12:53:51;4.82;;;2.40;;
63342;SDS011;49465;57.664;39.686;2023-04-19T12:58:55;5.90;;;2.78;;
63342;SDS011;49465;57.664;39.686;2023-04-19T13:01:25;3.78;;;2.60;;
63342;SDS011;49465;57.664;39.686;2023-04-19T13:04:04;3.38;;;2.60;;
63342;SDS011;49465;57.664;39.686;2023-04-19T13:06:36;4.15;;;2.75;;
63342;SDS011;49465;57.664;39.686;2023-04-19T13:09:13;5.40;;;2.78;;
63342;SDS011;49465;57.664;39.686;2023-04-19T13:11:47;6.03;;;2.78;;
63342;SDS011;49465;57.664;39.686;2023-04-19T13:14:25;4.20;;;2.90;;
63342;SDS011;49465;57.664;39.686;2023-04-19T13:16:54;4.13;;;2.80;;
63342;SDS011;49465;57.664;39.686;2023-04-19T13:19:26;3.45;;;2.55;;
63342;SDS011;49465;57.664;39.686;2023-04-19T13:21:56;4.82;;;3.35;;
63342;SDS011;49465;57.664;39.686;2023-04-19T13:24:30;3.50;;;2.58;;
63342;SDS011;49465;57.664;39.686;2023-04-19T13:27:05;4.57;;;2.65;;
63342;SDS011;49465;57.664;39.686;2023-04-19T13:29:32;4.80;;;2.70;;
63342;SDS011;49465;57.664;39.686;2023-04-19T13:32:04;8.77;;;2.75;;
63342;SDS011;49465;57.664;39.686;2023-04-19T13:34:32;6.22;;;2.70;;
63342;SDS011;49465;57.664;39.686;2023-04-19T13:37:01;4.97;;;2.75;;
63342;SDS011;49465;57.664;39.686;2023-04-19T13:39:33;4.40;;;2.90;;
63342;SDS011;49465;57.664;39.686;2023-04-19T13:42:02;3.33;;;2.40;;
63342;SDS011;49465;57.664;39.686;2023-04-19T13:44:40;5.00;;;2.50;;
63342;SDS011;49465;57.664;39.686;2023-04-19T13:47:11;8.88;;;2.78;;
63342;SDS011;49465;57.664;39.686;2023-04-19T13:49:43;9.35;;;2.78;;
63342;SDS011;49465;57.664;39.686;2023-04-19T13:52:16;5.88;;;2.70;;
63342;SDS011;49465;57.664;39.686;2023-04-19T13:54:50;4.72;;;2.78;;
63342;SDS011;49465;57.664;39.686;2023-04-19T13:57:22;10.15;;;2.90;;
63342;SDS011;49465;57.664;39.686;2023-04-19T13:59:52;4.90;;;2.90;;
63342;SDS011;49465;57.664;39.686;2023-04-19T14:02:21;8.00;;;2.78;;
63342;SDS011;49465;57.664;39.686;2023-04-19T14:04:54;5.95;;;3.22;;
63342;SDS011;49465;57.664;39.686;2023-04-19T14:07:26;6.93;;;2.95;;
63342;SDS011;49465;57.664;39.686;2023-04-19T14:09:57;6.32;;;3.65;;
63342;SDS011;49465;57.664;39.686;2023-04-19T14:12:28;6.35;;;3.40;;
63342;SDS011;49465;57.664;39.686;2023-04-19T14:14:54;6.00;;;4.10;;
63342;SDS011;49465;57.664;39.686;2023-04-19T14:17:27;5.93;;;4.30;;
63342;SDS011;49465;57.664;39.686;2023-04-19T14:19:56;8.57;;;4.32;;
63342;SDS011;49465;57.664;39.686;2023-04-19T14:22:25;5.97;;;4.40;;
63342;SDS011;49465;57.664;39.686;2023-04-19T14:24:58;7.13;;;4.50;;
63342;SDS011;49465;57.664;39.686;2023-04-19T14:27:28;5.68;;;4.10;;
63342;SDS011;49465;57.664;39.686;2023-04-19T14:29:57;6.50;;;3.40;;
63342;SDS011;49465;57.664;39.686;2023-04-19T14:32:24;5.88;;;3.78;;
63342;SDS011;49465;57.664;39.686;2023-04-19T14:34:53;7.97;;;3.53;;
63342;SDS011;49465;57.664;39.686;2023-04-19T14:37:20;5.40;;;3.75;;
63342;SDS011;49465;57.664;39.686;2023-04-19T14:39:48;7.43;;;3.40;;
63342;SDS011;49465;57.664;39.686;2023-04-19T14:42:14;26.05;;;14.75;;
63342;SDS011;49465;57.664;39.686;2023-04-19T14:44:41;41.08;;;21.52;;
63342;SDS011;49465;57.664;39.686;2023-04-19T14:47:16;49.53;;;25.45;;
63342;SDS011;49465;57.664;39.686;2023-04-19T14:49:51;42.97;;;21.73;;
63342;SDS011;49465;57.664;39.686;2023-04-19T14:52:24;46.42;;;13.02;;
63342;SDS011;49465;57.664;39.686;2023-04-19T14:54:57;50.22;;;10.88;;
63342;SDS011;49465;57.664;39.686;2023-04-19T14:57:32;40.55;;;10.10;;
63342;SDS011;49465;57.664;39.686;2023-04-19T15:00:11;34.78;;;9.23;;
63342;SDS011;49465;57.664;39.686;2023-04-19T15:02:58;36.08;;;8.10;;
63342;SDS011;49465;57.664;39.686;2023-04-19T15:05:34;22.58;;;6.22;;
63342;SDS011;49465;57.664;39.686;2023-04-19T15:08:05;16.13;;;5.35;;
63342;SDS011;49465;57.664;39.686;2023-04-19T15:10:43;35.95;;;5.75;;
63342;SDS011;49465;57.664;39.686;2023-04-19T15:13:09;12.63;;;4.85;;
63342;SDS011;49465;57.664;39.686;2023-04-19T15:15:39;13.45;;;4.32;;
63342;SDS011;49465;57.664;39.686;2023-04-19T15:18:11;14.25;;;5.50;;